Time;durP1;ratioP1;P1;durP2;ratioP2;P2;SDS_P1;SDS_P2;PMS_P1;PMS_P2;Temp;Humidity;BMP_temperature;BMP_pressure;BME280_temperature;BME280_humidity;BME280_pressure;Samples;Min_cycle;Max_cycle;Signal;HPM_P1;HPM_P2
2021/11/22 00:02:20;;;;;;;6.97;2.30;;;5.30;81.30;;;;;;4935044;29;20138;-82
2021/11/22 00:04:47;;;;;;;7.03;2.30;;;5.30;81.30;;;;;;4935213;29;20398;-82
2021/11/22 00:07:17;;;;;;;5.40;2.15;;;5.30;81.20;;;;;;4934857;29;20060;-82
2021/11/22 00:09:44;;;;;;;8.52;2.30;;;5.20;81.20;;;;;;4937097;29;20051;-83
2021/11/22 00:12:12;;;;;;;6.85;2.40;;;5.30;81.20;;;;;;4933588;29;20055;-83
2021/11/22 00:14:39;;;;;;;6.95;2.38;;;5.20;81.20;;;;;;4933437;29;20055;-83
2021/11/22 00:17:05;;;;;;;7.00;2.70;;;5.20;81.20;;;;;;4934730;29;20043;-83
2021/11/22 00:19:34;;;;;;;7.97;2.40;;;5.20;81.20;;;;;;4934797;29;20051;-83
2021/11/22 00:22:02;;;;;;;7.38;2.30;;;5.20;81.20;;;;;;4935737;29;20502;-82
2021/11/22 00:24:30;;;;;;;6.80;2.40;;;5.20;81.20;;;;;;4936005;29;20052;-82
2021/11/22 00:26:58;;;;;;;5.80;2.10;;;5.20;81.20;;;;;;4934639;29;20534;-82
2021/11/22 00:29:25;;;;;;;6.40;2.15;;;5.20;81.20;;;;;;4934508;29;20617;-84
2021/11/22 00:31:53;;;;;;;8.85;2.47;;;5.20;81.20;;;;;;4934785;29;20055;-83
2021/11/22 00:34:23;;;;;;;7.82;2.40;;;5.10;81.20;;;;;;4918472;29;20048;-83
2021/11/22 00:36:51;;;;;;;8.98;2.50;;;5.10;81.20;;;;;;4932144;29;20106;-83
2021/11/22 00:39:17;;;;;;;8.90;2.10;;;5.10;81.20;;;;;;4934459;29;20048;-82
2021/11/22 00:41:44;;;;;;;8.02;2.45;;;5.10;81.20;;;;;;4934409;29;20112;-82
2021/11/22 00:44:11;;;;;;;7.03;1.95;;;5.10;81.20;;;;;;4933227;29;20051;-82
2021/11/22 00:46:38;;;;;;;9.05;2.60;;;5.10;81.20;;;;;;4934372;29;20083;-82
2021/11/22 00:49:05;;;;;;;7.15;2.28;;;5.10;81.20;;;;;;4934907;29;20052;-81
2021/11/22 00:51:32;;;;;;;6.82;2.20;;;5.10;81.30;;;;;;4935468;29;20425;-82
2021/11/22 00:53:59;;;;;;;8.52;2.53;;;5.00;81.30;;;;;;4932736;29;20055;-82
2021/11/22 00:56:29;;;;;;;9.77;2.35;;;5.10;81.30;;;;;;4933956;29;20468;-82
2021/11/22 00:58:56;;;;;;;5.45;2.00;;;5.00;81.30;;;;;;4934232;29;20048;-82
2021/11/22 01:01:22;;;;;;;7.80;2.10;;;5.00;81.30;;;;;;4918598;29;20112;-82
2021/11/22 01:03:50;;;;;;;7.80;2.38;;;5.00;81.30;;;;;;4936038;29;20044;-82
2021/11/22 01:06:16;;;;;;;7.95;2.45;;;5.00;81.30;;;;;;4933589;29;20056;-82
2021/11/22 01:08:43;;;;;;;7.90;2.63;;;5.00;81.30;;;;;;4933933;29;20062;-82
2021/11/22 01:11:10;;;;;;;11.85;2.65;;;5.00;81.30;;;;;;4933930;29;20122;-82
2021/11/22 01:13:37;;;;;;;8.77;2.22;;;5.00;81.30;;;;;;4932537;29;20044;-82
2021/11/22 01:16:05;;;;;;;7.40;2.10;;;5.00;81.40;;;;;;4934534;29;20465;-82
2021/11/22 01:18:32;;;;;;;9.18;1.83;;;5.00;81.40;;;;;;4935322;29;20102;-82
2021/11/22 01:20:59;;;;;;;8.02;2.10;;;5.00;81.40;;;;;;4933198;29;20126;-83
2021/11/22 01:23:26;;;;;;;8.85;2.30;;;5.00;81.40;;;;;;4933710;29;20110;-82
2021/11/22 01:25:52;;;;;;;9.00;1.60;;;4.90;81.50;;;;;;4933667;29;20096;-82
2021/11/22 01:28:19;;;;;;;11.23;2.10;;;5.00;81.50;;;;;;4933644;29;20040;-83
2021/11/22 01:30:46;;;;;;;8.90;2.30;;;4.90;81.50;;;;;;4935601;29;20048;-82
2021/11/22 01:33:14;;;;;;;10.13;2.10;;;5.00;81.50;;;;;;4932025;29;20058;-81
2021/11/22 01:35:44;;;;;;;10.35;2.20;;;4.90;81.50;;;;;;4932977;29;20055;-82
2021/11/22 01:38:12;;;;;;;9.23;2.17;;;4.90;81.50;;;;;;4933320;29;20055;-81
2021/11/22 01:40:40;;;;;;;11.77;2.03;;;4.90;81.50;;;;;;4933342;29;20048;-82
2021/11/22 01:43:10;;;;;;;9.90;2.53;;;4.90;81.50;;;;;;4933625;29;20485;-82
2021/11/22 01:45:37;;;;;;;8.02;1.70;;;4.90;81.50;;;;;;4933676;29;20051;-82
2021/11/22 01:48:04;;;;;;;9.50;2.10;;;4.90;81.50;;;;;;4932864;29;20473;-82
2021/11/22 01:50:32;;;;;;;7.82;2.05;;;4.90;81.50;;;;;;4932975;29;20115;-82
2021/11/22 01:52:59;;;;;;;8.45;1.98;;;4.90;81.50;;;;;;4931903;29;20134;-82
2021/11/22 01:55:28;;;;;;;9.23;2.03;;;4.90;81.50;;;;;;4932871;29;20055;-82
2021/11/22 01:57:56;;;;;;;8.65;1.63;;;4.90;81.50;;;;;;4934673;29;20151;-82
2021/11/22 02:00:34;;;;;;;6.28;1.70;;;4.90;81.50;;;;;;4933196;29;20048;-81
2021/11/22 02:03:03;;;;;;;5.80;1.63;;;4.90;81.60;;;;;;4932587;29;20112;-82
2021/11/22 02:05:30;;;;;;;5.70;1.35;;;4.90;81.50;;;;;;4932736;29;20567;-81
2021/11/22 02:07:57;;;;;;;8.20;1.88;;;4.90;81.60;;;;;;4932895;29;20052;-82
2021/11/22 02:10:25;;;;;;;10.35;1.80;;;4.90;81.60;;;;;;4931388;29;20055;-81
2021/11/22 02:12:53;;;;;;;7.82;1.67;;;4.90;81.60;;;;;;4933034;29;20059;-82
2021/11/22 02:15:21;;;;;;;6.75;1.55;;;4.90;81.60;;;;;;4933281;29;20513;-82
2021/11/22 02:17:49;;;;;;;9.38;1.80;;;4.90;81.60;;;;;;4932237;29;20063;-82
2021/11/22 02:20:24;;;;;;;7.10;1.42;;;4.80;81.60;;;;;;4932566;29;20063;-81
2021/11/22 02:22:54;;;;;;;9.00;2.17;;;4.90;81.60;;;;;;4932647;29;20512;-82
2021/11/22 02:25:23;;;;;;;8.52;2.00;;;4.90;81.60;;;;;;4917455;29;20044;-82
2021/11/22 02:27:51;;;;;;;7.82;1.77;;;4.90;81.60;;;;;;4930584;29;20123;-81
2021/11/22 02:30:20;;;;;;;8.50;1.98;;;4.80;81.60;;;;;;4932595;29;20090;-82
2021/11/22 02:32:48;;;;;;;9.55;1.45;;;4.80;81.60;;;;;;4930833;29;20254;-81
2021/11/22 02:35:19;;;;;;;11.40;1.88;;;4.90;81.60;;;;;;4932265;29;20492;-81
2021/11/22 02:37:46;;;;;;;10.10;1.80;;;4.80;81.60;;;;;;4932424;29;20103;-82
2021/11/22 02:40:13;;;;;;;10.48;2.05;;;4.80;81.60;;;;;;4932290;29;20052;-83
2021/11/22 02:42:42;;;;;;;7.53;1.90;;;4.80;81.60;;;;;;4934246;29;20063;-82
2021/11/22 02:45:13;;;;;;;7.85;1.67;;;4.90;81.70;;;;;;4932121;29;20051;-82
2021/11/22 02:47:41;;;;;;;9.50;2.40;;;4.80;81.70;;;;;;4931739;29;20070;-82
2021/11/22 02:50:11;;;;;;;10.32;2.05;;;4.80;81.70;;;;;;4930633;29;20052;-81
2021/11/22 02:52:42;;;;;;;10.20;1.63;;;4.80;81.70;;;;;;4932186;29;20050;-81
2021/11/22 02:55:13;;;;;;;8.13;1.92;;;4.80;81.70;;;;;;4931854;29;20051;-81
2021/11/22 02:57:40;;;;;;;6.13;1.75;;;4.80;81.70;;;;;;4934070;29;20058;-82
2021/11/22 03:00:14;;;;;;;8.27;1.77;;;4.80;81.70;;;;;;4931934;29;20445;-82
2021/11/22 03:02:42;;;;;;;8.02;1.92;;;4.80;81.70;;;;;;4931612;29;20063;-82
2021/11/22 03:05:10;;;;;;;7.38;1.73;;;4.80;81.70;;;;;;4931844;29;20130;-82
2021/11/22 03:07:37;;;;;;;8.63;1.98;;;4.80;81.70;;;;;;4931868;29;20457;-82
2021/11/22 03:10:07;;;;;;;6.30;1.77;;;4.70;81.70;;;;;;4932889;29;20390;-82
2021/11/22 03:12:34;;;;;;;8.75;2.00;;;4.80;81.80;;;;;;4931723;29;20055;-82
2021/11/22 03:15:03;;;;;;;17.25;2.20;;;4.70;81.70;;;;;;4931303;29;20103;-82
2021/11/22 03:17:30;;;;;;;8.18;1.92;;;4.70;81.70;;;;;;4931942;29;20112;-82
2021/11/22 03:19:57;;;;;;;7.68;1.90;;;4.70;81.80;;;;;;4930327;29;20457;-83
2021/11/22 03:22:24;;;;;;;6.60;2.08;;;4.70;81.80;;;;;;4930702;29;20044;-82
2021/11/22 03:24:50;;;;;;;10.77;2.15;;;4.70;81.80;;;;;;4933625;29;20059;-82
2021/11/22 03:27:17;;;;;;;8.88;2.30;;;4.70;81.80;;;;;;4931770;29;20110;-82
2021/11/22 03:29:44;;;;;;;9.52;1.95;;;4.70;81.80;;;;;;4929746;29;20531;-82
2021/11/22 03:32:11;;;;;;;7.13;2.00;;;4.70;81.80;;;;;;4931660;29;20047;-82
2021/11/22 03:34:38;;;;;;;11.80;2.40;;;4.70;81.80;;;;;;4931754;29;20424;-81
2021/11/22 03:37:05;;;;;;;11.07;2.60;;;4.70;81.80;;;;;;4932086;29;20044;-82
2021/11/22 03:39:33;;;;;;;12.90;2.28;;;4.70;81.80;;;;;;4933484;29;20648;-82
2021/11/22 03:42:03;;;;;;;9.48;2.55;;;4.70;81.70;;;;;;4931463;29;20056;-82
2021/11/22 03:44:32;;;;;;;10.15;2.78;;;4.70;81.80;;;;;;4931096;29;20055;-82
2021/11/22 03:47:00;;;;;;;11.10;2.42;;;4.70;81.80;;;;;;4931524;29;20048;-81
2021/11/22 03:49:28;;;;;;;9.75;2.05;;;4.70;81.70;;;;;;4928986;29;20729;-82
2021/11/22 03:51:55;;;;;;;9.35;2.20;;;4.60;81.80;;;;;;4933082;29;20520;-82
2021/11/22 03:54:22;;;;;;;16.58;3.38;;;4.60;81.80;;;;;;4929633;29;20048;-82
2021/11/22 03:56:49;;;;;;;17.38;2.67;;;4.60;81.80;;;;;;4931293;29;20068;-82
2021/11/22 03:59:16;;;;;;;14.45;2.53;;;4.60;81.80;;;;;;4931055;29;20143;-82
2021/11/22 04:01:43;;;;;;;8.95;2.17;;;4.60;81.80;;;;;;4931395;29;20055;-82
2021/11/22 04:04:10;;;;;;;9.15;2.55;;;4.60;81.80;;;;;;4931426;29;20044;-82
2021/11/22 04:06:38;;;;;;;13.20;2.88;;;4.60;81.80;;;;;;4933297;29;20055;-82
2021/11/22 04:09:06;;;;;;;11.38;2.63;;;4.60;81.80;;;;;;4929816;29;20464;-82
2021/11/22 04:11:34;;;;;;;9.25;2.30;;;4.60;81.90;;;;;;4928463;29;20047;-82
2021/11/22 04:14:03;;;;;;;11.05;2.42;;;4.60;81.90;;;;;;4930969;29;20103;-82
2021/11/22 04:16:30;;;;;;;13.68;2.72;;;4.60;81.90;;;;;;4931285;29;20124;-82
2021/11/22 04:18:57;;;;;;;12.05;2.88;;;4.50;81.90;;;;;;4932540;29;20055;-82
2021/11/22 04:21:25;;;;;;;7.68;2.60;;;4.50;81.90;;;;;;4931917;29;20496;-81
2021/11/22 04:23:54;;;;;;;8.80;2.38;;;4.50;81.90;;;;;;4931205;29;20048;-82
2021/11/22 04:26:21;;;;;;;11.95;2.85;;;4.50;81.90;;;;;;4931088;29;20588;-81
2021/11/22 04:28:49;;;;;;;7.95;2.63;;;4.50;81.90;;;;;;4929665;29;20059;-82
2021/11/22 04:31:17;;;;;;;11.55;3.30;;;4.50;81.90;;;;;;4931268;29;20091;-82
2021/11/22 04:33:44;;;;;;;11.18;2.85;;;4.50;81.90;;;;;;4933080;29;20416;-81
2021/11/22 04:36:11;;;;;;;11.25;3.00;;;4.50;81.90;;;;;;4932597;29;20048;-81
2021/11/22 04:38:39;;;;;;;8.63;2.58;;;4.50;81.90;;;;;;4934503;29;20059;-81
2021/11/22 04:41:06;;;;;;;10.18;2.75;;;4.50;81.90;;;;;;4934374;29;20047;-81
2021/11/22 04:43:33;;;;;;;10.50;3.33;;;4.50;81.90;;;;;;4934270;29;20044;-82
2021/11/22 04:46:00;;;;;;;9.73;2.47;;;4.50;81.90;;;;;;4935275;29;20504;-81
2021/11/22 04:48:27;;;;;;;8.73;2.45;;;4.50;81.90;;;;;;4934136;29;20497;-82
2021/11/22 04:50:54;;;;;;;7.72;2.78;;;4.40;81.90;;;;;;4934165;29;20108;-81
2021/11/22 04:53:21;;;;;;;8.80;3.00;;;4.40;81.90;;;;;;4934239;29;20142;-81
2021/11/22 04:55:48;;;;;;;12.25;3.42;;;4.40;81.90;;;;;;4934088;29;20056;-83
2021/11/22 04:58:15;;;;;;;11.68;3.17;;;4.40;81.90;;;;;;4933823;29;20055;-82
2021/11/22 05:00:42;;;;;;;12.07;3.05;;;4.40;81.90;;;;;;4936146;29;20051;-82
2021/11/22 05:03:11;;;;;;;11.45;3.45;;;4.40;81.90;;;;;;4933953;29;20138;-82
2021/11/22 05:05:38;;;;;;;12.15;3.10;;;4.40;81.90;;;;;;4933968;29;20054;-81
2021/11/22 05:08:06;;;;;;;9.80;3.25;;;4.40;81.90;;;;;;4932605;29;20441;-82
2021/11/22 05:10:39;;;;;;;9.73;3.13;;;4.40;81.90;;;;;;4934035;29;20051;-82
2021/11/22 05:13:06;;;;;;;14.00;3.55;;;4.40;81.90;;;;;;4933974;29;20052;-81
2021/11/22 05:15:37;;;;;;;11.80;3.95;;;4.40;81.90;;;;;;4932478;29;20052;-82
2021/11/22 05:18:06;;;;;;;13.60;3.83;;;4.30;81.90;;;;;;4933828;29;20111;-82
2021/11/22 05:20:34;;;;;;;9.95;3.67;;;4.30;81.90;;;;;;4933628;29;20056;-82
2021/11/22 05:23:01;;;;;;;15.93;3.45;;;4.30;81.90;;;;;;4933727;29;20051;-82
2021/11/22 05:25:28;;;;;;;11.48;3.65;;;4.30;82.00;;;;;;4931869;29;20048;-82
2021/11/22 05:27:56;;;;;;;11.77;3.78;;;4.30;82.00;;;;;;4935169;29;20098;-82
2021/11/22 05:30:25;;;;;;;8.93;3.60;;;4.30;81.90;;;;;;4932797;29;20048;-82
2021/11/22 05:32:59;;;;;;;14.80;3.50;;;4.30;82.00;;;;;;4933517;29;20063;-81
2021/11/22 05:35:27;;;;;;;;;;;4.30;82.00;;;;;;4933858;29;20533;-82
2021/11/22 05:37:54;;;;;;;8.93;3.33;;;4.20;81.90;;;;;;4933511;29;19942;-82
2021/11/22 05:40:21;;;;;;;15.70;3.80;;;4.20;81.90;;;;;;4933158;29;20142;-82
2021/11/22 05:42:49;;;;;;;10.75;3.67;;;4.30;81.90;;;;;;4935271;29;20060;-82
2021/11/22 05:45:16;;;;;;;13.60;3.30;;;4.20;82.00;;;;;;4933284;29;20056;-82
2021/11/22 05:47:43;;;;;;;13.82;3.85;;;4.20;82.00;;;;;;4930725;29;20465;-82
2021/11/22 05:50:11;;;;;;;17.30;4.20;;;4.20;82.00;;;;;;4933159;29;20043;-82
2021/11/22 05:52:39;;;;;;;9.70;3.58;;;4.20;82.00;;;;;;4933365;29;20043;-82
2021/11/22 05:55:16;;;;;;;12.63;3.65;;;4.20;82.00;;;;;;4931938;29;20051;-82
2021/11/22 05:57:43;;;;;;;13.15;3.95;;;4.20;82.00;;;;;;4934332;29;20543;-82
2021/11/22 06:00:11;;;;;;;11.68;3.80;;;4.20;82.00;;;;;;4932930;29;20559;-81
2021/11/22 06:02:37;;;;;;;12.02;3.72;;;4.20;82.00;;;;;;4932952;29;20051;-82
2021/11/22 06:05:05;;;;;;;14.00;3.78;;;4.10;82.00;;;;;;4932985;29;20103;-82
2021/11/22 06:07:31;;;;;;;10.20;4.32;;;4.20;82.10;;;;;;4932905;29;20428;-81
2021/11/22 06:09:58;;;;;;;10.40;3.90;;;4.10;82.10;;;;;;4933866;29;20532;-81
2021/11/22 06:12:25;;;;;;;12.50;4.10;;;4.10;82.10;;;;;;4933623;29;20437;-82
2021/11/22 06:14:54;;;;;;;10.45;4.07;;;4.10;82.10;;;;;;4931428;29;20052;-81
2021/11/22 06:17:21;;;;;;;12.52;3.85;;;4.10;82.10;;;;;;4932690;29;20052;-82
2021/11/22 06:19:48;;;;;;;11.45;3.83;;;4.10;82.10;;;;;;4932739;29;20055;-81
2021/11/22 06:22:15;;;;;;;13.10;4.07;;;4.10;82.10;;;;;;4932615;29;20063;-81
2021/11/22 06:24:42;;;;;;;14.77;4.43;;;4.10;82.10;;;;;;4934190;29;20055;-81
2021/11/22 06:27:09;;;;;;;13.30;4.63;;;4.10;82.10;;;;;;4931258;29;20051;-82
2021/11/22 06:29:38;;;;;;;9.57;3.75;;;4.10;82.10;;;;;;4932468;29;20051;-81
2021/11/22 06:32:10;;;;;;;11.85;4.13;;;4.10;82.10;;;;;;4931220;29;20410;-82
2021/11/22 06:34:40;;;;;;;14.30;4.30;;;4.10;82.20;;;;;;4932428;29;20508;-81
2021/11/22 06:37:09;;;;;;;13.20;4.47;;;4.10;82.20;;;;;;4931436;29;20047;-82
2021/11/22 06:39:37;;;;;;;10.73;3.60;;;4.10;82.20;;;;;;4932094;29;20047;-81
2021/11/22 06:42:08;;;;;;;13.65;4.38;;;4.10;82.20;;;;;;4932264;29;20106;-81
2021/11/22 06:44:35;;;;;;;9.80;3.58;;;4.10;82.20;;;;;;4930750;29;20044;-82
2021/11/22 06:47:03;;;;;;;12.25;3.85;;;4.10;82.30;;;;;;4932105;29;20504;-82
2021/11/22 06:49:31;;;;;;;11.82;3.53;;;4.00;82.30;;;;;;4932371;29;20047;-81
2021/11/22 06:51:58;;;;;;;13.65;4.03;;;4.00;82.30;;;;;;4933465;29;20063;-82
2021/11/22 06:54:24;;;;;;;11.40;3.58;;;4.10;82.30;;;;;;4932477;29;20110;-82
2021/11/22 06:56:52;;;;;;;12.55;4.15;;;4.10;82.30;;;;;;4931844;29;20110;-81
2021/11/22 06:59:19;;;;;;;11.88;4.00;;;4.10;82.40;;;;;;4931716;29;20044;-81
2021/11/22 07:01:46;;;;;;;14.75;4.10;;;4.10;82.40;;;;;;4930527;29;20047;-82
2021/11/22 07:04:14;;;;;;;13.50;4.22;;;4.20;82.40;;;;;;4932056;29;20146;-82
2021/11/22 07:06:41;;;;;;;12.23;3.58;;;4.20;82.40;;;;;;4932825;29;20055;-82
2021/11/22 07:09:08;;;;;;;8.50;3.33;;;4.20;82.40;;;;;;4931495;29;20047;-82
2021/11/22 07:11:35;;;;;;;12.32;3.63;;;4.20;82.50;;;;;;4930627;29;20048;-82
2021/11/22 07:14:04;;;;;;;12.80;3.72;;;4.20;82.40;;;;;;4931746;29;20059;-82
2021/11/22 07:16:31;;;;;;;12.68;3.80;;;4.20;82.50;;;;;;4931910;29;20066;-82
2021/11/22 07:18:59;;;;;;;10.73;3.85;;;4.20;82.50;;;;;;4933180;29;20051;-82
2021/11/22 07:21:26;;;;;;;10.80;3.97;;;4.20;82.50;;;;;;4930181;29;20060;-82
2021/11/22 07:23:53;;;;;;;10.25;3.65;;;4.20;82.50;;;;;;4931729;29;20054;-81
2021/11/22 07:26:20;;;;;;;14.60;4.38;;;4.20;82.50;;;;;;4931558;29;20044;-82
2021/11/22 07:28:47;;;;;;;11.48;3.70;;;4.20;82.50;;;;;;4929938;29;20059;-82
2021/11/22 07:31:14;;;;;;;10.48;3.42;;;4.20;82.50;;;;;;4931439;29;20056;-82
2021/11/22 07:33:41;;;;;;;11.55;3.35;;;4.30;82.50;;;;;;4934580;29;20058;-82
2021/11/22 07:36:08;;;;;;;9.68;3.65;;;4.30;82.50;;;;;;4932404;29;20533;-83
2021/11/22 07:38:35;;;;;;;10.55;3.88;;;4.30;82.50;;;;;;4931507;29;20052;-82
2021/11/22 07:41:03;;;;;;;12.88;4.28;;;4.30;82.60;;;;;;4932537;29;20044;-81
2021/11/22 07:43:30;;;;;;;12.43;4.32;;;4.30;82.60;;;;;;4931434;29;20052;-82
2021/11/22 07:45:58;;;;;;;13.88;3.97;;;4.30;82.60;;;;;;4934115;29;20099;-82
2021/11/22 07:48:25;;;;;;;12.43;3.83;;;4.40;82.60;;;;;;4933123;29;20047;-82
2021/11/22 07:50:52;;;;;;;11.65;4.53;;;4.30;82.60;;;;;;4932391;29;20047;-82
2021/11/22 07:53:33;;;;;;;13.30;4.38;;;4.40;82.60;;;;;;4932340;29;20058;-82
2021/11/22 07:56:00;;;;;;;16.75;4.63;;;4.40;82.70;;;;;;4932320;29;20059;-81
2021/11/22 07:58:27;;;;;;;14.23;4.68;;;4.40;82.70;;;;;;4932711;29;20050;-82
2021/11/22 08:00:54;;;;;;;14.00;4.78;;;4.40;82.70;;;;;;4934055;29;20054;-82
2021/11/22 08:03:21;;;;;;;16.25;4.40;;;4.50;82.70;;;;;;4933184;29;20059;-82
2021/11/22 08:05:52;;;;;;;12.23;4.18;;;4.50;82.80;;;;;;4932024;29;20457;-81
2021/11/22 08:08:21;;;;;;;13.48;4.53;;;4.50;82.80;;;;;;4932261;29;20047;-82
2021/11/22 08:11:05;;;;;;;10.88;4.38;;;4.50;82.80;;;;;;4933585;29;20048;-82
2021/11/22 08:13:34;;;;;;;14.90;4.25;;;4.50;82.90;;;;;;4933525;29;20544;-82
2021/11/22 08:16:04;;;;;;;14.05;4.35;;;4.50;82.90;;;;;;4935676;29;20055;-81
2021/11/22 08:18:31;;;;;;;15.15;4.88;;;4.60;83.00;;;;;;4937560;29;20461;-81
2021/11/22 08:20:58;;;;;;;16.95;4.93;;;4.60;83.00;;;;;;4932317;29;20765;-82
2021/11/22 08:23:26;;;;;;;12.20;4.47;;;4.60;83.00;;;;;;4927180;29;20055;-82
2021/11/22 08:25:54;;;;;;;16.90;5.55;;;4.70;83.10;;;;;;4931820;29;20108;-82
2021/11/22 08:28:22;;;;;;;10.73;5.00;;;4.70;83.10;;;;;;4935435;29;20063;-82
2021/11/22 08:30:50;;;;;;;13.38;5.50;;;4.70;83.10;;;;;;4933310;29;20043;-82
2021/11/22 08:33:18;;;;;;;13.25;5.15;;;4.70;83.10;;;;;;4931378;29;20107;-83
2021/11/22 08:35:46;;;;;;;16.90;5.63;;;4.80;83.10;;;;;;4930781;29;20075;-83
2021/11/22 08:38:14;;;;;;;13.35;5.30;;;4.80;83.10;;;;;;4929937;29;20052;-83
2021/11/22 08:40:42;;;;;;;14.23;5.90;;;4.90;83.10;;;;;;4933359;29;20500;-83
2021/11/22 08:43:15;;;;;;;13.82;6.45;;;4.90;83.10;;;;;;4933594;29;20584;-84
2021/11/22 08:45:46;;;;;;;11.88;6.43;;;4.90;83.10;;;;;;4932971;29;20060;-82
2021/11/22 08:48:14;;;;;;;13.93;6.90;;;4.90;83.10;;;;;;4930582;29;20047;-82
2021/11/22 08:50:41;;;;;;;18.40;6.93;;;4.90;83.10;;;;;;4930692;29;20052;-82
2021/11/22 08:53:08;;;;;;;13.18;7.35;;;4.90;83.10;;;;;;4930697;29;20104;-82
2021/11/22 08:55:36;;;;;;;13.18;6.97;;;5.00;83.10;;;;;;4933662;29;20055;-82
2021/11/22 08:58:03;;;;;;;14.88;7.80;;;5.00;83.10;;;;;;4933597;29;20052;-83
2021/11/22 09:00:34;;;;;;;11.73;7.75;;;5.00;83.00;;;;;;4931858;29;20059;-81
2021/11/22 09:03:01;;;;;;;11.43;8.07;;;5.00;83.00;;;;;;4933444;29;20618;-82
2021/11/22 09:05:29;;;;;;;14.82;8.07;;;5.10;83.00;;;;;;4935119;29;20058;-81
2021/11/22 09:07:56;;;;;;;14.15;8.90;;;5.10;83.00;;;;;;4935005;29;20055;-81
2021/11/22 09:10:24;;;;;;;17.52;9.70;;;5.10;82.90;;;;;;4920208;29;20048;-82
2021/11/22 09:12:51;;;;;;;13.25;9.25;;;5.20;82.90;;;;;;4933150;29;20425;-82
2021/11/22 09:15:19;;;;;;;15.98;10.10;;;5.20;82.90;;;;;;4934649;29;20056;-83
2021/11/22 09:17:46;;;;;;;16.27;9.85;;;5.20;82.80;;;;;;4934606;29;20106;-83
2021/11/22 09:20:14;;;;;;;16.55;9.88;;;5.20;82.80;;;;;;4934901;29;20055;-83
2021/11/22 09:22:41;;;;;;;15.82;9.93;;;5.20;82.70;;;;;;4934525;29;20106;-83
2021/11/22 09:25:10;;;;;;;15.23;9.88;;;5.20;82.70;;;;;;4934943;29;20651;-82
2021/11/22 09:27:37;;;;;;;14.88;9.63;;;5.30;82.70;;;;;;4935110;29;20048;-82
2021/11/22 09:30:07;;;;;;;19.48;9.88;;;5.30;82.70;;;;;;4934312;29;20106;-82
2021/11/22 09:32:34;;;;;;;17.10;10.07;;;5.30;82.60;;;;;;4934453;29;20055;-82
2021/11/22 09:35:01;;;;;;;17.65;10.18;;;5.30;82.60;;;;;;4934749;29;20048;-82
2021/11/22 09:37:28;;;;;;;16.15;9.98;;;5.30;82.60;;;;;;4934408;29;20056;-82
2021/11/22 09:39:56;;;;;;;16.38;10.50;;;5.40;82.60;;;;;;4936249;29;20107;-82
2021/11/22 09:42:23;;;;;;;17.77;10.48;;;5.30;82.60;;;;;;4932480;29;20051;-81
2021/11/22 09:44:50;;;;;;;12.88;9.02;;;5.40;82.50;;;;;;4934307;29;20051;-82
2021/11/22 09:47:17;;;;;;;15.93;9.35;;;5.40;82.50;;;;;;4934121;29;20062;-82
2021/11/22 09:49:45;;;;;;;12.38;7.97;;;5.40;82.50;;;;;;4934670;29;20047;-82
2021/11/22 09:52:12;;;;;;;13.65;8.50;;;5.40;82.50;;;;;;4932879;29;20627;-82
2021/11/22 09:54:39;;;;;;;11.52;8.25;;;5.40;82.50;;;;;;4936400;29;20103;-82
2021/11/22 09:57:06;;;;;;;10.45;7.65;;;5.50;82.40;;;;;;4933488;29;20059;-81
2021/11/22 09:59:34;;;;;;;11.95;7.72;;;5.50;82.40;;;;;;4932908;29;20047;-82
2021/11/22 10:02:01;;;;;;;15.75;7.10;;;5.50;82.40;;;;;;4932632;29;20047;-82
2021/11/22 10:04:32;;;;;;;9.60;6.78;;;5.50;82.40;;;;;;4933053;29;20059;-83
2021/11/22 10:07:02;;;;;;;10.50;6.45;;;5.50;82.40;;;;;;4934313;29;20500;-83
2021/11/22 10:09:32;;;;;;;9.43;6.68;;;5.50;82.30;;;;;;4934193;29;20497;-82
2021/11/22 10:12:16;;;;;;;12.63;6.03;;;5.50;82.30;;;;;;4932876;29;20052;-82
2021/11/22 10:14:45;;;;;;;9.95;5.93;;;5.50;82.30;;;;;;4932758;29;20052;-83
2021/11/22 10:17:28;;;;;;;7.90;5.75;;;5.60;82.20;;;;;;4932457;29;20050;-82
2021/11/22 10:20:10;;;;;;;10.40;6.05;;;5.60;82.20;;;;;;4931513;29;20051;-83
2021/11/22 10:23:04;;;;;;;8.18;5.45;;;5.70;82.20;;;;;;4919666;29;20055;-82
2021/11/22 10:25:42;;;;;;;9.75;5.93;;;5.70;82.30;;;;;;4918734;29;20128;-82
2021/11/22 10:28:16;;;;;;;7.40;5.32;;;5.80;82.20;;;;;;4932812;29;20165;-82
2021/11/22 10:30:59;;;;;;;8.55;5.55;;;5.90;82.20;;;;;;4933239;29;20569;-83
2021/11/22 10:33:30;;;;;;;10.45;5.28;;;6.10;82.10;;;;;;4932830;29;20600;-82
2021/11/22 10:36:05;;;;;;;9.77;5.68;;;6.20;82.00;;;;;;4932383;29;20064;-83
2021/11/22 10:38:35;;;;;;;8.90;5.50;;;6.40;81.80;;;;;;4932406;29;20110;-82
2021/11/22 10:41:08;;;;;;;11.57;5.63;;;6.50;81.60;;;;;;4932239;29;20502;-82
2021/11/22 10:43:49;;;;;;;9.13;5.00;;;6.60;81.30;;;;;;4932337;29;20051;-82
2021/11/22 10:46:28;;;;;;;10.30;5.53;;;6.70;81.10;;;;;;4932021;29;20048;-83
2021/11/22 10:49:38;;;;;;;10.75;5.22;;;6.80;80.90;;;;;;4930470;29;20056;-83
2021/11/22 10:52:35;;;;;;;10.13;4.97;;;6.90;80.60;;;;;;4930807;29;20111;-82
2021/11/22 10:55:02;;;;;;;11.75;5.38;;;7.10;80.30;;;;;;4930162;29;20048;-82
2021/11/22 10:57:49;;;;;;;8.57;5.28;;;7.20;80.00;;;;;;4933385;29;20068;-83
2021/11/22 11:00:23;;;;;;;11.13;4.20;;;7.30;79.70;;;;;;4930249;29;20058;-82
2021/11/22 11:02:52;;;;;;;8.30;4.35;;;7.40;79.40;;;;;;4931889;29;20047;-83
2021/11/22 11:05:31;;;;;;;7.35;4.28;;;7.40;79.10;;;;;;4931819;29;20044;-82
2021/11/22 11:08:10;;;;;;;6.38;3.90;;;7.50;78.80;;;;;;4932126;29;20450;-83
2021/11/22 11:10:39;;;;;;;11.38;4.03;;;7.60;78.60;;;;;;4928702;29;20055;-82
2021/11/22 11:13:48;;;;;;;6.68;4.00;;;7.60;78.40;;;;;;4938998;29;20461;-82
2021/11/22 11:16:17;;;;;;;6.65;3.80;;;7.70;78.20;;;;;;4932481;29;20091;-82
2021/11/22 11:19:04;;;;;;;7.30;3.75;;;7.70;78.00;;;;;;4934857;29;20094;-82
2021/11/22 11:21:34;;;;;;;7.20;3.88;;;7.80;77.90;;;;;;4934483;29;20114;-83
2021/11/22 11:24:03;;;;;;;8.07;3.38;;;7.80;77.80;;;;;;4932557;29;20142;-83
2021/11/22 11:26:32;;;;;;;10.50;3.72;;;7.90;77.70;;;;;;4932711;29;20054;-82
2021/11/22 11:29:01;;;;;;;6.07;3.17;;;7.90;77.60;;;;;;4932609;29;20052;-83
2021/11/22 11:31:28;;;;;;;6.22;2.70;;;7.90;77.50;;;;;;4932652;29;20513;-82
2021/11/22 11:33:56;;;;;;;7.40;3.33;;;7.90;77.40;;;;;;4934630;29;20055;-83
2021/11/22 11:36:31;;;;;;;6.07;2.78;;;7.90;77.30;;;;;;4931979;29;20103;-83
2021/11/22 11:39:39;;;;;;;6.53;2.78;;;7.90;77.10;;;;;;4925303;29;20063;-83
2021/11/22 11:42:43;;;;;;;9.15;2.83;;;7.90;76.80;;;;;;4930744;29;20110;-83
2021/11/22 11:45:44;;;;;;;8.40;3.00;;;8.00;76.60;;;;;;4934092;29;20051;-83
2021/11/22 11:48:45;;;;;;;6.03;2.60;;;8.00;76.30;;;;;;4934764;29;20299;-83
2021/11/22 11:51:15;;;;;;;5.00;2.40;;;8.00;76.10;;;;;;4936502;29;20056;-83
2021/11/22 11:54:04;;;;;;;9.43;2.75;;;8.00;75.90;;;;;;4936696;29;20134;-83
2021/11/22 11:56:34;;;;;;;6.13;2.40;;;7.90;75.80;;;;;;4936179;29;20060;-82
2021/11/22 11:59:25;;;;;;;5.30;2.50;;;7.90;75.50;;;;;;4935779;29;20055;-83
2021/11/22 12:02:11;;;;;;;13.52;3.22;;;8.00;75.20;;;;;;4936384;29;20051;-82
2021/11/22 12:04:45;;;;;;;7.32;2.40;;;8.00;75.10;;;;;;4923580;29;20110;-83
2021/11/22 12:07:22;;;;;;;8.15;2.70;;;8.00;75.00;;;;;;4935928;29;20051;-83
2021/11/22 12:10:05;;;;;;;6.25;2.50;;;7.90;74.90;;;;;;4938341;29;20142;-83
2021/11/22 12:12:35;;;;;;;5.53;2.45;;;7.90;74.70;;;;;;4937480;29;20099;-83
2021/11/22 12:15:12;;;;;;;7.05;2.40;;;8.00;74.50;;;;;;4935813;29;20108;-85
2021/11/22 12:18:22;;;;;;;5.15;2.30;;;8.00;74.40;;;;;;4935168;29;20075;-84
2021/11/22 12:20:50;;;;;;;5.00;1.92;;;7.90;74.30;;;;;;4935087;29;20055;-82
2021/11/22 12:23:22;;;;;;;8.98;2.60;;;8.00;74.20;;;;;;4934646;29;20103;-82
2021/11/22 12:25:52;;;;;;;5.93;2.05;;;8.00;74.10;;;;;;4934508;29;20044;-82
2021/11/22 12:28:19;;;;;;;5.93;2.00;;;8.00;73.90;;;;;;4934810;29;20048;-82
2021/11/22 12:30:50;;;;;;;5.80;1.92;;;8.00;73.80;;;;;;4936726;29;20052;-83
2021/11/22 12:33:21;;;;;;;6.63;2.17;;;8.00;73.70;;;;;;4934688;29;20103;-82
2021/11/22 12:35:50;;;;;;;7.28;2.00;;;8.00;73.70;;;;;;4934572;29;20059;-82
2021/11/22 12:38:29;;;;;;;8.45;2.00;;;8.00;73.60;;;;;;4934500;29;20048;-82
2021/11/22 12:41:23;;;;;;;3.97;1.67;;;8.10;73.50;;;;;;4934318;29;20083;-82
2021/11/22 12:43:55;;;;;;;5.53;1.92;;;8.00;73.30;;;;;;4934430;29;20099;-83
2021/11/22 12:46:40;;;;;;;4.47;1.80;;;8.10;73.10;;;;;;4934627;29;20075;-82
2021/11/22 12:49:28;;;;;;;6.10;1.80;;;8.10;72.90;;;;;;4932990;29;20091;-82
2021/11/22 12:52:11;;;;;;;7.53;1.70;;;8.10;72.80;;;;;;4932572;29;20056;-82
2021/11/22 12:54:57;;;;;;;5.68;1.95;;;8.10;72.80;;;;;;4934635;29;20467;-82
2021/11/22 12:57:36;;;;;;;7.28;1.90;;;8.10;72.80;;;;;;4933012;29;20063;-82
2021/11/22 13:00:25;;;;;;;4.47;1.60;;;8.20;72.70;;;;;;4934146;29;20055;-82
2021/11/22 13:02:54;;;;;;;5.07;1.55;;;8.20;72.50;;;;;;4933799;29;20047;-82
2021/11/22 13:05:53;;;;;;;4.55;1.50;;;8.20;72.40;;;;;;4934152;29;20055;-82
2021/11/22 13:08:21;;;;;;;4.78;1.65;;;8.20;72.20;;;;;;4933847;29;20220;-82
2021/11/22 13:10:50;;;;;;;5.13;1.45;;;8.20;72.10;;;;;;4933768;29;20052;-82